CheckWX is a tool to help pilots better visualize weather data.  It is not intended as a substitute for an official pre-flight weather briefing.

14:51:21 UTC

FMCH TAF
Prince Said Ibrahim International Airport
Moroni, Comoros
TAF FMCH 231100Z 2312/2418 30010KT 9999 FEW020 BECMG 2316/2318 10004KT BECMG 2404/2406 33010KT

Mar-23@
12:00 UTC

Mar-23 @ 12:00 UTC

Mar-23@
16:00 UTC

Mar-23 @ 16:00 UTC

TAF FMCH 231100Z 2312/2418 30010KT 9999 FEW020
Wind
  • 300° at 10 KTS
Cloud Levels
  • Few at 2,000' AGL

Mar-23@
16:00 UTC

Mar-23 @ 16:00 UTC

Mar-24@
04:00 UTC

Mar-24 @ 04:00 UTC

BECMG 2316/2318 10004KT

Becoming

Becoming Conditions expected by Sat, Mar 23, 2019 @ 18:00 UTC

Wind
  • 100° at 4 KTS
Cloud Levels
  • Few at 2,000' AGL

Mar-24@
04:00 UTC

Mar-24 @ 04:00 UTC

Mar-24@
18:00 UTC

Mar-24 @ 18:00 UTC

BECMG 2404/2406 33010KT

Becoming

Becoming Conditions expected by Sun, Mar 24, 2019 @ 06:00 UTC

Wind
  • 330° at 10 KTS
Cloud Levels
  • Few at 2,000' AGL